TAF Text Data
IDs:
Format:
Raw Decoded Include METAR

Data at: 1009 UTC 07 Dec 2022

Region: TOP
KATL 070930Z 0710/0812 13004KT 1/4SM DZ FG VV002
  FM071400 22005KT 3SM BR OVC003
  FM071600 23007KT 6SM BR OVC008
  FM071800 24006KT P6SM OVC012
  FM072000 24006KT P6SM BKN030
  FM080200 25004KT P6SM BKN012


KBOS 070859Z 0709/0812 10009KT 4SM RA BR OVC020
  FM071100 13014KT 3SM -SHRA BR OVC008
  FM072100 17007KT 3SM -SHRA BR OVC005
  FM080300 25005KT 4SM BR OVC007
  FM080700 31007KT P6SM BKN040


KBWI 070908Z 0709/0812 13003KT 2SM BR OVC003
  FM071400 16003KT 3SM -SHRA BR OVC004
  FM071700 21004KT P6SM OVC008
  FM072000 21003KT P6SM OVC010
  FM072300 00000KT P6SM OVC008
  FM080500 33003KT P6SM BKN025
  FM080800 34004KT P6SM BKN050


KCLE 070838Z 0709/0812 VRB03KT 5SM BR BKN015
  TEMPO 0709/0712 BKN008
  FM071200 31004KT 1SM BR OVC004
  FM072100 32005KT 5SM BR OVC007
  FM080000 31005KT 6SM BR OVC015


KCLT 070957Z 0710/0812 VRB02KT 1SM BR VV002
  TEMPO 0710/0714 1/4SM -RADZ FG VV001
  FM071600 22006KT 1SM BR OVC002
  FM071900 23007KT 5SM BR OVC005
  FM080600 VRB02KT 3/4SM BR OVC005


KCVG 070855Z 0709/0812 29003KT 1SM BR OVC003
  FM071600 00000KT 4SM BR BKN008
  FM071900 32003KT P6SM BKN011
  FM080400 03003KT P6SM BKN013
  FM081000 05005KT 4SM BR BKN013


KDCA 070908Z 0709/0812 20005KT 4SM BR OVC005
  FM071400 20005KT 5SM -SHRA BR OVC008
  FM072000 20004KT P6SM OVC015
  FM072300 00000KT P6SM OVC008
  FM080500 34005KT P6SM BKN025
  FM080800 34005KT P6SM SCT090


KDEN 071004Z 0710/0812 15009KT P6SM FEW150
  FM071400 VRB05KT P6SM FEW150
  FM071900 15012KT P6SM SCT140 SCT200
  FM080000 10009KT P6SM SCT100 BKN150
  FM080600 20008KT P6SM SCT150


KDFW 070901Z 0709/0812 02006KT P6SM -RA BKN028 OVC100
  FM071200 02005KT P6SM -RA OVC009
  FM072000 03005KT 5SM BR VCSH OVC007
  FM080200 15006KT P6SM OVC022
  FM080900 18007KT P6SM -RA OVC012


KDTW 070910Z 0709/0812 35005KT 2SM BR BKN006 OVC020
  FM071100 33005KT P6SM OVC012
  FM071500 35007KT P6SM SCT018 OVC035
  FM072200 35005KT P6SM BKN040


KEWR 070937Z 0710/0812 18005KT 5SM -RA BR OVC004
  FM071100 19005KT 2SM -RA BR OVC004
  FM071500 18005KT 5SM -RA BR OVC006
  FM071900 22006KT 6SM BR OVC008
  FM080000 26006KT P6SM BKN012
  FM080300 29006KT P6SM SCT015 BKN050
  FM080800 33009KT P6SM SCT250


KFLL 070855Z 0709/0812 07006KT P6SM FEW030 SCT050
  FM071600 09011KT P6SM SCT030 SCT050
  FM080300 08008KT P6SM FEW050 SCT250


KIAD 070908Z 0709/0812 18003KT P6SM OVC006
  TEMPO 0710/0713 4SM BR OVC003
  FM071300 20004KT 5SM -SHRA BR OVC008
  FM071900 20005KT P6SM BKN015
  FM080100 32003KT P6SM OVC008
  FM080400 34005KT P6SM BKN020
  FM080800 34005KT P6SM SCT090


KIAH 070902Z 0709/0812 00000KT 6SM BR BKN009 BKN016 OVC027
  FM071100 VRB04KT 5SM BR SCT008 OVC018
  FM071500 16006KT P6SM BKN030
  FM071700 17011KT P6SM SCT050 SCT250
  FM080900 15006KT 6SM BR BKN010


KJFK 070830Z 0709/0812 18011KT 4SM -RA BR OVC006
  FM071100 18008KT 2SM -RA BR OVC004
  FM071500 18006KT 3SM -RA OVC005
  FM072000 20006KT 5SM BR OVC008
  FM080000 26006KT P6SM BKN010
  FM080300 30007KT P6SM SCT015 BKN050
  FM080800 33011KT P6SM SCT250


KLAS 070846Z 0709/0812 22005KT P6SM FEW080 SCT200
  FM072100 23011KT P6SM SCT100 SCT200
  FM080400 21007KT P6SM SKC


KLAX 070912Z 0709/0812 VRB03KT P6SM VCSH FEW018
  FM071600 VRB03KT P6SM SCT025
  FM072100 26010KT P6SM SCT030
  FM080300 VRB03KT P6SM SKC


KLGA 070830Z 0709/0812 18011KT 4SM -RA BR OVC006
  FM071100 18008KT 2SM -RA BR OVC004
  FM071500 20006KT 4SM -RA BR OVC006
  FM072000 22006KT 5SM BR OVC008
  FM080000 26006KT P6SM BKN012
  FM080300 30006KT P6SM SCT015 BKN050
  FM080800 33009KT P6SM SCT250


KMCO 070900Z 0709/0812 36002KT P6SM SKC
  TEMPO 0709/0712 4SM BR SCT002
  FM071500 05008KT P6SM SCT025
  FM080000 04006KT P6SM FEW040


KMDW 070900Z 0709/0812 34005KT 4SM BR SCT006 OVC010
  TEMPO 0710/0713 2SM BR OVC006
  FM071400 34005KT P6SM SCT006 OVC009
  FM071800 33007KT P6SM BKN015
  FM072100 35006KT P6SM BKN025


KMEM 070905Z 0709/0812 22009KT 6SM -SHRA BKN015 OVC035
  FM071000 23004KT 4SM -SHRA VCTS BKN018CB OVC035
  FM071300 33005KT 2SM -SHRA BR OVC009
  FM071600 02006KT 6SM BR VCSH OVC006
  FM080300 05002KT 2SM -DZ BR OVC003


KMIA 070855Z 0709/0812 VRB03KT P6SM FEW030
  FM071500 08011KT P6SM FEW030 SCT050
  FM080300 07006KT P6SM FEW050 SCT250


KMSP 070847Z 0709/0812 02007KT P6SM SCT190
  FM071000 36004KT P6SM BKN060
  FM071400 01006KT 6SM -SN BR BKN030
  TEMPO 0714/0718 4SM -SN BR BKN025
  FM071800 02006KT P6SM SCT028
  FM080400 00000KT P6SM FEW250


KORD 070900Z 0709/0812 34005KT 1 1/2SM BR OVC004
  TEMPO 0709/0713 3/4SM BR OVC003
  FM071400 34005KT P6SM SCT005 OVC008
  TEMPO 0714/0716 4SM BR OVC005
  FM071800 33007KT P6SM BKN015
  FM072100 35006KT P6SM BKN025


KPDX 070849Z 0709/0806 VRB03KT 5SM BR OVC045
  FM071100 00000KT 3SM BR BKN007 BKN015
  FM072000 13004KT P6SM BKN015 OVC050
  FM080100 13006KT P6SM SCT015 OVC050


KPHL 070835Z 0709/0812 22004KT 2SM -DZ BR SCT003 OVC005
  TEMPO 0709/0712 3/4SM -RA BR OVC003
  FM071200 22004KT 1SM -DZ BR VCSH OVC003
  FM071600 22006KT 3SM -DZ BR SCT003 OVC005
  FM080200 31005KT 1SM BR BKN007
  FM080500 32006KT 5SM BR BKN070
  FM080800 33007KT P6SM SCT200


KPHX 070836Z 0709/0812 VRB03KT P6SM BKN040 BKN200
  FM071000 11004KT P6SM BKN040 BKN120
  FM071600 17006KT P6SM BKN060 BKN120
  FM071900 25007KT P6SM SCT060 SCT120
  FM080500 VRB03KT P6SM SKC


KPIT 070857Z 0709/0812 18005KT 3/4SM -DZ BR OVC002
  TEMPO 0709/0712 1/2SM -RA FG
  FM071400 30005KT 1SM -DZ BR OVC003
  FM071800 31005KT 3SM BR OVC004
  FM080900 35005KT P6SM OVC008


KSAN 070912Z 0709/0812 VRB04KT P6SM VCSH SCT025 SCT150
  TEMPO 0711/0715 BKN025
  FM071700 23005KT P6SM SCT025 BKN035
  FM072100 29008KT P6SM SCT030
  FM080300 VRB04KT P6SM SCT030
  TEMPO 0810/0812 BKN025


KSEA 070855Z 0709/0812 19006KT P6SM VCSH BKN020 OVC035
  TEMPO 0709/0712 -RA OVC020
  FM071800 18008KT P6SM SCT012 BKN022 OVC035
  FM072200 16008KT P6SM SCT025 BKN040 OVC060
  FM080800 16014KT P6SM -RA BKN020 OVC040


KSFO 070901Z 0709/0812 VRB03KT P6SM FEW050
  FM072200 27008KT P6SM FEW250
  FM080300 25005KT P6SM FEW250
  FM080800 VRB03KT P6SM FEW015 SCT250


KSLC 070837Z 0709/0812 15005KT 3SM BR BCFG BKN007 OVC010
  FM071700 35005KT 5SM BR VCFG SCT007 BKN015
  FM071900 35004KT P6SM VCSH SCT015 BKN025 OVC050
  FM080400 15005KT 5SM BR BKN015 OVC025


KSTL 070907Z 0709/0812 VRB04KT 1SM BR OVC003
  FM071300 VRB03KT 3SM BR OVC003
  FM071600 VRB03KT 4SM BR OVC011
  FM072200 VRB04KT P6SM OVC035
  FM080600 VRB04KT P6SM VCSH OVC025


KTPA 070902Z 0709/0812 VRB03KT P6SM FEW040
  FM071500 08006KT P6SM SCT050 SCT250
  FM072000 32006KT P6SM SCT050 SCT250
  FM080100 VRB03KT P6SM FEW040